Palisades, Washington
Current Conditions -  °F | °C
As of 12:55 AM on Monday 20 Oct 2014 (Local Time) from KEAT Reporting Station
Clear Clear  
Wind Chill: 53°   Ceiling: Unl
Heat Index: 53°   Visibility: 10mi
Dew Point: 48°   Wind: 7mph
Humidity: 83%   Direction: 290°WNW
Pressure: 29.74"   Gusts: NA
Location:  47.42°N, 119.92°W
Report Text: KEAT 200755Z AUTO 29006KT 10SM CLR 12/09 A2974 RMK AO2 SLP067 T01170089 402000111
Loading
Personal Weather Stations






























Interactive Weather Map
Tropical Storm Tracking
New forecast layout! Learn more

10-Day Weather Forecast

Advertisements
Track Severe Weather on mobile